Time,TemperatureF,DewpointF,PressureIn,WindDirection,WindDirectionDegrees,WindSpeedMPH,WindSpeedGustMPH,Humidity,HourlyPrecipIn,Conditions,Clouds,dailyrainin,SoftwareType,DateUTC
2013-04-11 00:00:00,41.8,37.9,29.88,SW,236,7.0,7.0,86,0.00,,---,0.00,VWS V14.01,2013-04-11 05:00:00,
2013-04-11 00:05:00,41.6,37.4,29.88,West,272,3.0,10.0,85,0.00,,---,0.00,VWS V14.01,2013-04-11 05:05:00,
2013-04-11 00:10:00,41.6,37.4,29.88,WNW,286,3.0,3.0,85,0.00,,---,0.00,VWS V14.01,2013-04-11 05:10:00,
2013-04-11 00:15:00,41.6,37.4,29.88,WNW,291,3.0,7.0,85,0.00,,---,0.00,VWS V14.01,2013-04-11 05:15:00,
2013-04-11 00:20:00,41.6,37.4,29.87,West,275,3.0,6.0,85,0.00,,---,0.00,VWS V14.01,2013-04-11 05:20:00,
2013-04-11 00:25:00,41.5,37.3,29.87,West,275,6.0,11.0,85,0.00,,---,0.00,VWS V14.01,2013-04-11 05:25:00,
2013-04-11 00:30:00,41.5,37.3,29.88,West,280,3.0,3.0,85,0.00,,---,0.00,VWS V14.01,2013-04-11 05:30:00,
2013-04-11 00:35:00,41.3,37.1,29.88,West,263,6.0,16.0,85,0.00,,---,0.00,VWS V14.01,2013-04-11 05:35:00,
2013-04-11 00:40:00,41.2,37.0,29.88,West,275,3.0,6.0,85,0.00,,---,0.00,VWS V14.01,2013-04-11 05:40:00,
2013-04-11 00:45:00,41.2,37.0,29.88,WSW,248,10.0,10.0,85,0.00,,---,0.00,VWS V14.01,2013-04-11 05:45:00,
2013-04-11 00:51:00,41.1,36.6,29.87,WSW,256,5.0,11.0,84,0.00,,---,0.00,VWS V14.01,2013-04-11 05:51:00,
2013-04-11 00:56:00,41.1,36.6,29.88,WNW,301,5.0,11.0,84,0.00,,---,0.00,VWS V14.01,2013-04-11 05:56:00,
2013-04-11 01:01:00,41.1,36.6,29.88,WSW,252,5.0,5.0,84,0.00,,---,0.00,VWS V14.01,2013-04-11 06:01:00,
2013-04-11 01:06:00,40.9,36.5,29.88,WNW,287,7.0,12.0,84,0.00,,---,0.00,VWS V14.01,2013-04-11 06:06:00,
2013-04-11 01:11:00,40.8,36.3,29.88,WNW,284,3.0,10.0,84,0.00,,---,0.00,VWS V14.01,2013-04-11 06:11:00,
2013-04-11 01:16:00,40.8,36.3,29.88,WNW,290,5.0,11.0,84,0.00,,---,0.00,VWS V14.01,2013-04-11 06:16:00,
2013-04-11 01:21:00,40.6,36.2,29.88,West,260,2.0,7.0,84,0.00,,---,0.00,VWS V14.01,2013-04-11 06:21:00,
2013-04-11 01:26:00,40.6,36.2,29.89,WNW,290,10.0,10.0,84,0.00,,---,0.00,VWS V14.01,2013-04-11 06:26:00,
2013-04-11 01:31:00,40.6,36.2,29.89,WNW,294,2.0,2.0,84,0.00,,---,0.00,VWS V14.01,2013-04-11 06:31:00,
2013-04-11 01:36:00,40.8,36.3,29.89,West,272,3.0,6.0,84,0.00,,---,0.00,VWS V14.01,2013-04-11 06:36:00,
2013-04-11 01:41:00,40.8,36.3,29.89,NW,304,5.0,6.0,84,0.00,,---,0.00,VWS V14.01,2013-04-11 06:41:00,
2013-04-11 01:47:00,40.8,36.3,29.89,WNW,294,2.0,6.0,84,0.00,,---,0.00,VWS V14.01,2013-04-11 06:47:00,
2013-04-11 01:52:00,40.6,35.8,29.89,West,273,2.0,11.0,83,0.00,,---,0.00,VWS V14.01,2013-04-11 06:52:00,
2013-04-11 01:57:00,40.6,35.8,29.90,West,272,1.0,11.0,83,0.00,,---,0.00,VWS V14.01,2013-04-11 06:57:00,
2013-04-11 02:02:00,40.6,35.8,29.90,West,260,0.0,5.0,83,0.00,,---,0.00,VWS V14.01,2013-04-11 07:02:00,
2013-04-11 02:07:00,40.6,35.8,29.90,West,277,3.0,6.0,83,0.00,,---,0.00,VWS V14.01,2013-04-11 07:07:00,
2013-04-11 02:12:00,40.5,35.8,29.90,West,279,5.0,10.0,83,0.00,,---,0.00,VWS V14.01,2013-04-11 07:12:00,
2013-04-11 02:17:00,40.3,35.6,29.90,West,270,2.0,10.0,83,0.00,,---,0.00,VWS V14.01,2013-04-11 07:17:00,
2013-04-11 02:22:00,40.3,35.9,29.90,WNW,301,2.0,5.0,84,0.00,,---,0.00,VWS V14.01,2013-04-11 07:22:00,
2013-04-11 02:27:00,40.3,35.6,29.90,West,279,3.0,8.0,83,0.00,,---,0.00,VWS V14.01,2013-04-11 07:27:00,
2013-04-11 02:32:00,40.2,35.5,29.89,West,273,3.0,6.0,83,0.00,,---,0.00,VWS V14.01,2013-04-11 07:32:00,
2013-04-11 02:37:00,40.2,35.5,29.88,West,269,10.0,10.0,83,0.00,,---,0.00,VWS V14.01,2013-04-11 07:37:00,
2013-04-11 02:42:00,40.1,35.7,29.88,West,270,1.0,5.0,84,0.00,,---,0.00,VWS V14.01,2013-04-11 07:42:00,
2013-04-11 02:47:00,40.1,35.7,29.88,WNW,282,12.0,12.0,84,0.00,,---,0.00,VWS V14.01,2013-04-11 07:47:00,
2013-04-11 02:52:00,39.9,35.5,29.88,West,269,5.0,6.0,84,0.00,,---,0.00,VWS V14.01,2013-04-11 07:52:00,
2013-04-11 02:57:00,39.9,35.5,29.89,West,270,2.0,6.0,84,0.00,,---,0.00,VWS V14.01,2013-04-11 07:57:00,
2013-04-11 03:02:00,39.9,35.5,29.89,SW,235,3.0,7.0,84,0.00,,---,0.00,VWS V14.01,2013-04-11 08:02:00,
2013-04-11 03:07:00,39.8,35.4,29.89,West,260,2.0,10.0,84,0.00,,---,0.00,VWS V14.01,2013-04-11 08:07:00,
2013-04-11 03:12:00,39.8,35.4,29.89,West,266,3.0,8.0,84,0.00,,---,0.00,VWS V14.01,2013-04-11 08:12:00,
2013-04-11 03:17:00,39.6,35.2,29.89,West,267,3.0,12.0,84,0.00,,---,0.00,VWS V14.01,2013-04-11 08:17:00,
2013-04-11 03:22:00,39.5,34.8,29.90,WNW,300,5.0,8.0,83,0.00,,---,0.00,VWS V14.01,2013-04-11 08:22:00,
2013-04-11 03:27:00,39.3,34.6,29.90,West,265,6.0,8.0,83,0.00,,---,0.00,VWS V14.01,2013-04-11 08:27:00,
2013-04-11 03:32:00,39.3,34.3,29.89,West,275,6.0,6.0,82,0.00,,---,0.00,VWS V14.01,2013-04-11 08:32:00,
2013-04-11 03:37:00,39.3,34.3,29.89,NW,304,3.0,10.0,82,0.00,,---,0.00,VWS V14.01,2013-04-11 08:37:00,
2013-04-11 03:42:00,39.3,34.3,29.90,West,279,5.0,8.0,82,0.00,,---,0.00,VWS V14.01,2013-04-11 08:42:00,
2013-04-11 03:47:00,39.3,34.0,29.90,West,263,5.0,8.0,81,0.00,,---,0.00,VWS V14.01,2013-04-11 08:47:00,
2013-04-11 03:52:00,39.2,33.9,29.89,West,276,3.0,6.0,81,0.00,,---,0.00,VWS V14.01,2013-04-11 08:52:00,
2013-04-11 03:57:00,38.9,33.3,29.89,West,265,7.0,12.0,80,0.00,,---,0.00,VWS V14.01,2013-04-11 08:57:00,
2013-04-11 04:02:00,38.8,33.5,29.88,West,275,2.0,7.0,81,0.00,,---,0.00,VWS V14.01,2013-04-11 09:02:00,
2013-04-11 04:07:00,38.6,33.6,29.88,WNW,286,2.0,8.0,82,0.00,,---,0.00,VWS V14.01,2013-04-11 09:07:00,
2013-04-11 04:12:00,38.3,33.3,29.88,West,270,3.0,8.0,82,0.00,,---,0.00,VWS V14.01,2013-04-11 09:12:00,
2013-04-11 04:17:00,38.0,33.3,29.87,West,273,0.0,11.0,83,0.00,,---,0.00,VWS V14.01,2013-04-11 09:17:00,
2013-04-11 04:22:00,37.9,33.2,29.87,West,269,1.0,8.0,83,0.00,,---,0.00,VWS V14.01,2013-04-11 09:22:00,
2013-04-11 04:27:00,37.8,33.4,29.87,West,273,0.0,8.0,84,0.00,,---,0.00,VWS V14.01,2013-04-11 09:27:00,
2013-04-11 04:32:00,37.6,33.2,29.88,WNW,283,2.0,6.0,84,0.00,,---,0.00,VWS V14.01,2013-04-11 09:32:00,
2013-04-11 04:37:00,37.5,33.1,29.86,WNW,287,3.0,6.0,84,0.00,,---,0.00,VWS V14.01,2013-04-11 09:37:00,
2013-04-11 04:42:00,37.3,33.2,29.85,West,265,3.0,13.0,85,0.00,,---,0.00,VWS V14.01,2013-04-11 09:42:00,
2013-04-11 04:47:00,37.2,33.1,29.85,WNW,283,5.0,13.0,85,0.00,,---,0.00,VWS V14.01,2013-04-11 09:47:00,
2013-04-11 04:52:00,37.2,33.1,29.85,WNW,300,8.0,12.0,85,0.00,,---,0.00,VWS V14.01,2013-04-11 09:52:00,
2013-04-11 04:57:00,37.2,33.4,29.85,West,279,2.0,12.0,86,0.00,,---,0.00,VWS V14.01,2013-04-11 09:57:00,
2013-04-11 05:02:00,37.2,33.4,29.87,West,260,1.0,6.0,86,0.00,,---,0.00,VWS V14.01,2013-04-11 10:02:00,
2013-04-11 05:07:00,37.0,33.2,29.90,WSW,251,0.0,6.0,86,0.00,,---,0.00,VWS V14.01,2013-04-11 10:07:00,
2013-04-11 05:12:00,37.0,33.2,29.90,SSW,200,0.0,1.0,86,0.00,,---,0.00,VWS V14.01,2013-04-11 10:12:00,
2013-04-11 05:17:00,36.9,33.1,29.90,SSW,200,0.0,1.0,86,0.00,,---,0.00,VWS V14.01,2013-04-11 10:17:00,
2013-04-11 05:22:00,36.8,33.0,29.89,SSW,200,0.0,1.0,86,0.00,,---,0.00,VWS V14.01,2013-04-11 10:22:00,
2013-04-11 05:28:00,36.5,33.0,29.88,SSW,200,0.0,1.0,87,0.00,,---,0.00,VWS V14.01,2013-04-11 10:28:00,
2013-04-11 05:33:00,36.2,32.7,29.87,SSW,200,0.0,0.0,87,0.00,,---,0.00,VWS V14.01,2013-04-11 10:33:00,
2013-04-11 05:38:00,35.8,32.6,29.87,SSW,200,0.0,0.0,88,0.00,,---,0.00,VWS V14.01,2013-04-11 10:38:00,
2013-04-11 05:43:00,35.5,32.3,29.88,SSW,200,0.0,0.0,88,0.00,,---,0.00,VWS V14.01,2013-04-11 10:43:00,
2013-04-11 05:48:00,35.0,32.1,29.87,SSW,200,0.0,0.0,89,0.00,,---,0.00,VWS V14.01,2013-04-11 10:48:00,
2013-04-11 05:53:00,34.7,31.8,29.88,SSW,200,0.0,0.0,89,0.00,,---,0.00,VWS V14.01,2013-04-11 10:53:00,
2013-04-11 05:58:00,34.6,31.7,29.86,SSW,200,0.0,0.0,89,0.00,,---,0.00,VWS V14.01,2013-04-11 10:58:00,
2013-04-11 06:03:00,34.6,32.2,29.85,SSW,200,0.0,0.0,91,0.00,,---,0.00,VWS V14.01,2013-04-11 11:03:00,
2013-04-11 06:08:00,34.6,32.2,29.85,SSW,200,0.0,0.0,91,0.00,,---,0.00,VWS V14.01,2013-04-11 11:08:00,
2013-04-11 06:13:00,34.6,32.2,29.86,SSW,200,0.0,0.0,91,0.00,,---,0.00,VWS V14.01,2013-04-11 11:13:00,
2013-04-11 06:18:00,34.7,32.6,29.85,SSW,200,0.0,0.0,92,0.00,,---,0.00,VWS V14.01,2013-04-11 11:18:00,
2013-04-11 06:23:00,34.9,32.8,29.85,SSW,200,0.0,0.0,92,0.00,,---,0.00,VWS V14.01,2013-04-11 11:23:00,
2013-04-11 06:28:00,35.2,33.1,29.87,SSW,200,0.0,0.0,92,0.00,,---,0.00,VWS V14.01,2013-04-11 11:28:00,
2013-04-11 06:33:00,35.2,33.1,29.87,SSW,200,0.0,0.0,92,0.00,,---,0.00,VWS V14.01,2013-04-11 11:33:00,
2013-04-11 06:38:00,35.3,33.2,29.89,SSW,200,0.0,1.0,92,0.00,,---,0.00,VWS V14.01,2013-04-11 11:38:00,
2013-04-11 06:43:00,35.5,33.4,29.89,SSW,200,0.0,2.0,92,0.00,,---,0.00,VWS V14.01,2013-04-11 11:43:00,
2013-04-11 06:48:00,35.6,33.5,29.90,SSW,200,2.0,3.0,92,0.00,,---,0.00,VWS V14.01,2013-04-11 11:48:00,
2013-04-11 06:53:00,35.6,33.5,29.91,SSW,197,1.0,3.0,92,0.00,,---,0.00,VWS V14.01,2013-04-11 11:53:00,
2013-04-11 06:58:00,35.8,33.4,29.90,SSW,203,2.0,3.0,91,0.00,,---,0.00,VWS V14.01,2013-04-11 11:58:00,
2013-04-11 07:03:00,35.8,33.2,29.87,SSW,203,0.0,1.0,90,0.00,,---,0.00,VWS V14.01,2013-04-11 12:03:00,
2013-04-11 07:08:00,35.8,33.2,29.90,SSW,203,3.0,3.0,90,0.00,,---,0.00,VWS V14.01,2013-04-11 12:08:00,
2013-04-11 07:13:00,35.9,33.3,29.89,SSW,204,0.0,2.0,90,0.00,,---,0.00,VWS V14.01,2013-04-11 12:13:00,
2013-04-11 07:18:00,36.0,33.4,29.89,SSW,204,0.0,2.0,90,0.00,,---,0.00,VWS V14.01,2013-04-11 12:18:00,
2013-04-11 07:23:00,36.0,33.1,29.91,SSW,204,0.0,0.0,89,0.00,,---,0.00,VWS V14.01,2013-04-11 12:23:00,
2013-04-11 07:28:00,36.2,33.3,29.92,SSW,203,2.0,3.0,89,0.00,,---,0.00,VWS V14.01,2013-04-11 12:28:00,
2013-04-11 07:33:00,36.3,33.4,29.92,SSW,203,0.0,3.0,89,0.00,,---,0.00,VWS V14.01,2013-04-11 12:33:00,
2013-04-11 07:38:00,36.5,33.3,29.92,SSW,198,1.0,5.0,88,0.00,,---,0.00,VWS V14.01,2013-04-11 12:38:00,
2013-04-11 07:43:00,36.5,33.3,29.92,SSW,198,1.0,2.0,88,0.00,,---,0.00,VWS V14.01,2013-04-11 12:43:00,
2013-04-11 07:48:00,36.6,33.1,29.91,SSW,198,2.0,2.0,87,0.00,,---,0.00,VWS V14.01,2013-04-11 12:48:00,
2013-04-11 07:53:00,36.6,32.8,29.90,SSW,200,3.0,3.0,86,0.00,,---,0.00,VWS V14.01,2013-04-11 12:53:00,
2013-04-11 07:58:00,36.8,33.0,29.88,SW,222,3.0,5.0,86,0.00,,---,0.00,VWS V14.01,2013-04-11 12:58:00,
2013-04-11 08:03:00,36.8,32.7,29.88,SW,222,1.0,2.0,85,0.00,,---,0.00,VWS V14.01,2013-04-11 13:03:00,
2013-04-11 08:08:00,36.9,33.1,29.90,SW,222,3.0,5.0,86,0.00,,---,0.00,VWS V14.01,2013-04-11 13:08:00,
2013-04-11 08:13:00,37.0,33.2,29.90,West,262,1.0,2.0,86,0.00,,---,0.00,VWS V14.01,2013-04-11 13:13:00,
2013-04-11 08:18:00,37.0,32.9,29.89,West,269,5.0,10.0,85,0.00,,---,0.00,VWS V14.01,2013-04-11 13:18:00,
2013-04-11 08:23:00,37.0,32.9,29.87,West,269,3.0,7.0,85,0.00,,---,0.00,VWS V14.01,2013-04-11 13:23:00,
2013-04-11 08:28:00,37.0,32.9,29.86,West,269,5.0,7.0,85,0.00,,---,0.00,VWS V14.01,2013-04-11 13:28:00,
2013-04-11 08:33:00,37.2,32.5,29.87,West,273,2.0,7.0,83,0.00,,---,0.00,VWS V14.01,2013-04-11 13:33:00,
2013-04-11 08:38:00,37.2,33.1,29.84,NW,304,5.0,7.0,85,0.00,,---,0.00,VWS V14.01,2013-04-11 13:38:00,
2013-04-11 08:43:00,37.0,33.5,29.84,West,272,3.0,8.0,87,0.01,,---,0.01,VWS V14.01,2013-04-11 13:43:00,
2013-04-11 08:48:00,37.0,33.5,29.85,West,269,6.0,8.0,87,0.01,,---,0.01,VWS V14.01,2013-04-11 13:48:00,
2013-04-11 08:53:00,37.2,34.3,29.86,West,279,3.0,10.0,89,0.01,,---,0.01,VWS V14.01,2013-04-11 13:53:00,
2013-04-11 08:58:00,37.3,34.1,29.85,West,280,7.0,10.0,88,0.01,,---,0.01,VWS V14.01,2013-04-11 13:58:00,
2013-04-11 09:03:00,37.3,34.1,29.86,WSW,243,3.0,7.0,88,0.01,,---,0.01,VWS V14.01,2013-04-11 14:03:00,
2013-04-11 09:08:00,37.5,34.0,29.86,SW,214,6.0,12.0,87,0.01,,---,0.01,VWS V14.01,2013-04-11 14:08:00,
2013-04-11 09:13:00,37.6,34.1,29.85,WSW,253,3.0,11.0,87,0.01,,---,0.01,VWS V14.01,2013-04-11 14:13:00,
2013-04-11 09:18:00,37.8,34.3,29.85,West,266,5.0,11.0,87,0.01,,---,0.01,VWS V14.01,2013-04-11 14:18:00,
2013-04-11 09:23:00,37.9,33.8,29.85,West,277,6.0,10.0,85,0.01,,---,0.01,VWS V14.01,2013-04-11 14:23:00,
2013-04-11 09:28:00,38.5,34.4,29.86,WNW,301,5.0,10.0,85,0.01,,---,0.01,VWS V14.01,2013-04-11 14:28:00,
2013-04-11 09:33:00,38.8,33.8,29.85,West,276,7.0,13.0,82,0.01,,---,0.01,VWS V14.01,2013-04-11 14:33:00,
2013-04-11 09:39:00,39.1,34.1,29.85,NW,314,3.0,13.0,82,0.01,,---,0.01,VWS V14.01,2013-04-11 14:39:00,
2013-04-11 09:44:00,39.2,32.9,29.86,WNW,287,6.0,12.0,78,0.00,,---,0.01,VWS V14.01,2013-04-11 14:44:00,
2013-04-11 09:49:00,39.5,33.2,29.86,West,272,2.0,12.0,78,0.00,,---,0.01,VWS V14.01,2013-04-11 14:49:00,
2013-04-11 09:53:00,39.9,33.3,29.87,West,260,7.0,8.0,77,0.00,,---,0.01,VWS V14.01,2013-04-11 14:53:00,
2013-04-11 09:58:00,40.1,33.5,29.87,WSW,249,7.0,11.0,77,0.00,,---,0.01,VWS V14.01,2013-04-11 14:58:00,
2013-04-11 10:03:00,40.3,33.7,29.87,SW,219,8.0,12.0,77,0.00,,---,0.01,VWS V14.01,2013-04-11 15:03:00,
2013-04-11 10:08:00,40.8,33.8,29.88,West,273,5.0,12.0,76,0.00,,---,0.01,VWS V14.01,2013-04-11 15:08:00,
2013-04-11 10:13:00,41.2,33.5,29.88,West,273,2.0,8.0,74,0.00,,---,0.01,VWS V14.01,2013-04-11 15:13:00,
2013-04-11 10:18:00,41.3,33.0,29.88,WNW,289,3.0,13.0,72,0.00,,---,0.01,VWS V14.01,2013-04-11 15:18:00,
2013-04-11 10:23:00,41.3,33.7,29.88,WNW,283,8.0,13.0,74,0.00,,---,0.01,VWS V14.01,2013-04-11 15:23:00,
2013-04-11 10:29:00,41.5,33.2,29.88,NW,310,5.0,13.0,72,0.00,,---,0.01,VWS V14.01,2013-04-11 15:29:00,
2013-04-11 10:34:00,42.1,34.4,29.87,NW,306,1.0,11.0,74,0.00,,---,0.01,VWS V14.01,2013-04-11 15:34:00,
2013-04-11 10:39:00,42.6,33.9,29.88,West,272,10.0,11.0,71,0.00,,---,0.01,VWS V14.01,2013-04-11 15:39:00,
2013-04-11 10:45:00,42.9,34.5,29.87,West,277,8.0,8.0,72,0.00,,---,0.01,VWS V14.01,2013-04-11 15:45:00,
2013-04-11 10:50:00,43.5,33.7,29.88,WSW,252,7.0,12.0,68,0.00,,---,0.01,VWS V14.01,2013-04-11 15:50:00,
2013-04-11 10:55:00,43.5,33.7,29.88,WNW,303,3.0,11.0,68,0.00,,---,0.01,VWS V14.01,2013-04-11 15:55:00,
2013-04-11 11:00:00,43.9,34.4,29.87,WNW,303,5.0,11.0,69,0.00,,---,0.01,VWS V14.01,2013-04-11 16:00:00,
2013-04-11 11:05:00,44.3,34.4,29.87,WNW,294,12.0,12.0,68,0.00,,---,0.01,VWS V14.01,2013-04-11 16:05:00,
2013-04-11 11:10:00,44.3,33.7,29.87,WSW,246,7.0,14.0,66,0.00,,---,0.01,VWS V14.01,2013-04-11 16:10:00,
2013-04-11 11:15:00,44.2,34.3,29.87,West,262,1.0,11.0,68,0.00,,---,0.01,VWS V14.01,2013-04-11 16:15:00,
2013-04-11 11:20:00,44.9,34.6,29.88,WSW,245,7.0,11.0,67,0.00,,---,0.01,VWS V14.01,2013-04-11 16:20:00,
2013-04-11 11:25:00,45.4,35.1,29.87,WSW,249,8.0,13.0,67,0.00,,---,0.01,VWS V14.01,2013-04-11 16:25:00,
2013-04-11 11:30:00,44.6,33.6,29.86,West,265,2.0,16.0,65,0.00,,---,0.01,VWS V14.01,2013-04-11 16:30:00,
2013-04-11 11:35:00,44.9,33.5,29.87,WSW,252,3.0,8.0,64,0.00,,---,0.01,VWS V14.01,2013-04-11 16:35:00,
2013-04-11 11:40:00,45.2,34.2,29.87,WNW,301,5.0,5.0,65,0.00,,---,0.01,VWS V14.01,2013-04-11 16:40:00,
2013-04-11 11:45:00,45.5,33.2,29.87,West,277,3.0,10.0,62,0.00,,---,0.01,VWS V14.01,2013-04-11 16:45:00,
2013-04-11 11:50:00,45.8,33.1,29.87,WNW,287,7.0,14.0,61,0.00,,---,0.01,VWS V14.01,2013-04-11 16:50:00,
2013-04-11 11:55:00,46.5,33.8,29.87,West,267,10.0,13.0,61,0.00,,---,0.01,VWS V14.01,2013-04-11 16:55:00,
2013-04-11 12:00:00,46.8,34.5,29.86,WNW,286,5.0,13.0,62,0.00,,---,0.01,VWS V14.01,2013-04-11 17:00:00,
2013-04-11 12:05:00,46.8,33.7,29.86,WSW,251,0.0,11.0,60,0.00,,---,0.01,VWS V14.01,2013-04-11 17:05:00,
2013-04-11 12:10:00,47.1,34.8,29.86,NW,304,3.0,11.0,62,0.00,,---,0.01,VWS V14.01,2013-04-11 17:10:00,
2013-04-11 12:15:00,48.6,36.2,29.85,NW,325,6.0,11.0,62,0.00,,---,0.01,VWS V14.01,2013-04-11 17:15:00,
2013-04-11 12:20:00,48.9,36.5,29.85,WNW,303,3.0,3.0,62,0.00,,---,0.01,VWS V14.01,2013-04-11 17:20:00,
2013-04-11 12:25:00,48.8,36.4,29.85,WSW,249,5.0,13.0,62,0.00,,---,0.01,VWS V14.01,2013-04-11 17:25:00,
2013-04-11 12:30:00,49.1,35.4,29.85,West,277,3.0,13.0,59,0.00,,---,0.01,VWS V14.01,2013-04-11 17:30:00,
2013-04-11 12:35:00,49.6,35.9,29.84,WNW,283,8.0,8.0,59,0.00,,---,0.01,VWS V14.01,2013-04-11 17:35:00,
2013-04-11 12:40:00,49.5,34.0,29.84,West,266,11.0,14.0,55,0.00,,---,0.01,VWS V14.01,2013-04-11 17:40:00,
2013-04-11 12:45:00,49.4,33.9,29.84,WSW,245,8.0,11.0,55,0.00,,---,0.01,VWS V14.01,2013-04-11 17:45:00,
2013-04-11 12:50:00,49.9,34.4,29.85,SW,219,5.0,11.0,55,0.00,,---,0.01,VWS V14.01,2013-04-11 17:50:00,
2013-04-11 12:55:00,50.4,34.9,29.85,West,273,7.0,7.0,55,0.00,,---,0.01,VWS V14.01,2013-04-11 17:55:00,
2013-04-11 13:00:00,50.8,34.8,29.84,WSW,238,6.0,7.0,54,0.00,,---,0.01,VWS V14.01,2013-04-11 18:00:00,
2013-04-11 13:05:00,51.1,35.0,29.84,West,262,3.0,13.0,54,0.00,,---,0.01,VWS V14.01,2013-04-11 18:05:00,
2013-04-11 13:10:00,51.6,35.0,29.84,WNW,290,5.0,5.0,53,0.00,,---,0.01,VWS V14.01,2013-04-11 18:10:00,
2013-04-11 13:15:00,52.0,35.4,29.84,SW,227,6.0,6.0,53,0.00,,---,0.01,VWS V14.01,2013-04-11 18:15:00,
2013-04-11 13:20:00,52.6,34.0,29.84,WSW,246,2.0,6.0,49,0.00,,---,0.01,VWS V14.01,2013-04-11 18:20:00,
2013-04-11 13:25:00,52.0,33.5,29.83,WNW,282,10.0,16.0,49,0.00,,---,0.01,VWS V14.01,2013-04-11 18:25:00,
2013-04-11 13:30:00,52.5,33.9,29.83,West,259,8.0,8.0,49,0.00,,---,0.01,VWS V14.01,2013-04-11 18:30:00,
2013-04-11 13:35:00,53.1,36.0,29.83,SW,235,6.0,11.0,52,0.00,,---,0.01,VWS V14.01,2013-04-11 18:35:00,
2013-04-11 13:40:00,53.6,37.4,29.83,WSW,256,3.0,8.0,54,0.00,,---,0.01,VWS V14.01,2013-04-11 18:40:00,
2013-04-11 13:45:00,53.6,37.4,29.83,WSW,245,3.0,17.0,54,0.00,,---,0.01,VWS V14.01,2013-04-11 18:45:00,
2013-04-11 13:50:00,54.4,35.1,29.82,West,265,5.0,7.0,48,0.00,,---,0.01,VWS V14.01,2013-04-11 18:50:00,
2013-04-11 13:55:00,54.4,35.1,29.82,West,263,11.0,11.0,48,0.00,,---,0.01,VWS V14.01,2013-04-11 18:55:00,
2013-04-11 14:00:00,54.4,35.1,29.82,WSW,248,8.0,8.0,48,0.00,,---,0.01,VWS V14.01,2013-04-11 19:00:00,
2013-04-11 14:05:00,54.8,36.0,29.81,West,276,3.0,12.0,49,0.00,,---,0.01,VWS V14.01,2013-04-11 19:05:00,
2013-04-11 14:10:00,55.4,36.6,29.81,WSW,243,10.0,10.0,49,0.00,,---,0.01,VWS V14.01,2013-04-11 19:10:00,
2013-04-11 14:15:00,56.0,37.1,29.81,SSW,204,6.0,10.0,49,0.00,,---,0.01,VWS V14.01,2013-04-11 19:15:00,
2013-04-11 14:20:00,56.5,37.6,29.81,WNW,291,2.0,7.0,49,0.00,,---,0.01,VWS V14.01,2013-04-11 19:20:00,
2013-04-11 14:25:00,56.6,34.4,29.81,WNW,282,6.0,10.0,43,0.00,,---,0.01,VWS V14.01,2013-04-11 19:25:00,
2013-04-11 14:30:00,56.5,34.9,29.81,West,263,8.0,8.0,44,0.00,,---,0.01,VWS V14.01,2013-04-11 19:30:00,
2013-04-11 14:35:00,56.5,34.9,29.81,West,275,2.0,10.0,44,0.00,,---,0.01,VWS V14.01,2013-04-11 19:35:00,
2013-04-11 14:40:00,56.7,35.0,29.80,ESE,116,2.0,2.0,44,0.00,,---,0.01,VWS V14.01,2013-04-11 19:40:00,
2013-04-11 14:45:00,57.0,35.3,29.80,West,259,17.0,17.0,44,0.00,,---,0.01,VWS V14.01,2013-04-11 19:45:00,
2013-04-11 14:50:00,57.6,34.7,29.80,NW,304,2.0,2.0,42,0.00,,---,0.01,VWS V14.01,2013-04-11 19:50:00,
2013-04-11 14:55:00,58.0,35.1,29.80,WSW,252,5.0,7.0,42,0.00,,---,0.01,VWS V14.01,2013-04-11 19:55:00,
2013-04-11 15:00:00,57.5,34.6,29.79,West,272,7.0,7.0,42,0.00,,---,0.01,VWS V14.01,2013-04-11 20:00:00,
2013-04-11 15:05:00,57.5,36.3,29.80,WSW,242,2.0,11.0,45,0.00,,---,0.01,VWS V14.01,2013-04-11 20:05:00,
2013-04-11 15:10:00,57.8,36.6,29.79,SW,219,5.0,5.0,45,0.00,,---,0.01,VWS V14.01,2013-04-11 20:10:00,
2013-04-11 15:15:00,57.8,37.7,29.79,South,177,7.0,10.0,47,0.00,,---,0.01,VWS V14.01,2013-04-11 20:15:00,
2013-04-11 15:20:00,57.6,37.5,29.79,SW,222,10.0,10.0,47,0.00,,---,0.01,VWS V14.01,2013-04-11 20:20:00,
2013-04-11 15:25:00,57.6,37.5,29.79,SW,214,6.0,10.0,47,0.00,,---,0.01,VWS V14.01,2013-04-11 20:25:00,
2013-04-11 15:30:00,58.1,38.0,29.78,SSW,207,5.0,5.0,47,0.00,,---,0.01,VWS V14.01,2013-04-11 20:30:00,
2013-04-11 15:35:00,58.6,39.0,29.78,WSW,242,5.0,11.0,48,0.00,,---,0.01,VWS V14.01,2013-04-11 20:35:00,
2013-04-11 15:40:00,58.3,35.9,29.78,SW,219,5.0,5.0,43,0.00,,---,0.01,VWS V14.01,2013-04-11 20:40:00,
2013-04-11 15:45:00,58.4,37.7,29.78,SW,221,5.0,7.0,46,0.00,,---,0.01,VWS V14.01,2013-04-11 20:45:00,
2013-04-11 15:50:00,58.6,37.9,29.78,SW,232,2.0,2.0,46,0.00,,---,0.01,VWS V14.01,2013-04-11 20:50:00,
2013-04-11 15:55:00,58.6,37.9,29.78,WSW,251,6.0,6.0,46,0.00,,---,0.01,VWS V14.01,2013-04-11 20:55:00,
2013-04-11 16:00:00,58.9,35.9,29.77,SSW,194,10.0,10.0,42,0.00,,---,0.01,VWS V14.01,2013-04-11 21:00:00,
2013-04-11 16:05:00,58.9,37.0,29.77,SW,227,5.0,10.0,44,0.00,,---,0.01,VWS V14.01,2013-04-11 21:05:00,
2013-04-11 16:10:00,59.2,39.5,29.77,SSE,166,3.0,3.0,48,0.00,,---,0.01,VWS V14.01,2013-04-11 21:10:00,
2013-04-11 16:15:00,59.2,39.5,29.76,WNW,287,2.0,14.0,48,0.00,,---,0.01,VWS V14.01,2013-04-11 21:15:00,
2013-04-11 16:20:00,59.5,37.0,29.76,SW,235,6.0,6.0,43,0.00,,---,0.01,VWS V14.01,2013-04-11 21:20:00,
2013-04-11 16:25:00,59.5,36.4,29.75,West,279,12.0,12.0,42,0.00,,---,0.01,VWS V14.01,2013-04-11 21:25:00,
2013-04-11 16:30:00,58.9,37.0,29.74,SW,217,6.0,6.0,44,0.00,,---,0.01,VWS V14.01,2013-04-11 21:30:00,
2013-04-11 16:35:00,58.9,37.0,29.74,South,180,3.0,10.0,44,0.00,,---,0.01,VWS V14.01,2013-04-11 21:35:00,
2013-04-11 16:40:00,59.3,37.4,29.74,WNW,283,10.0,10.0,44,0.00,,---,0.01,VWS V14.01,2013-04-11 21:40:00,
2013-04-11 16:45:00,59.3,35.6,29.74,West,273,8.0,10.0,41,0.00,,---,0.01,VWS V14.01,2013-04-11 21:45:00,
2013-04-11 16:50:00,59.5,36.4,29.74,WSW,256,7.0,8.0,42,0.00,,---,0.01,VWS V14.01,2013-04-11 21:50:00,
2013-04-11 16:55:00,59.5,35.8,29.74,SW,214,6.0,12.0,41,0.00,,---,0.01,VWS V14.01,2013-04-11 21:55:00,
2013-04-11 17:00:00,59.3,37.4,29.74,SSW,212,5.0,5.0,44,0.00,,---,0.01,VWS V14.01,2013-04-11 22:00:00,
2013-04-11 17:05:00,59.6,37.7,29.74,South,180,3.0,6.0,44,0.00,,---,0.01,VWS V14.01,2013-04-11 22:05:00,
2013-04-11 17:10:00,60.1,37.5,29.74,SW,235,3.0,3.0,43,0.00,,---,0.01,VWS V14.01,2013-04-11 22:10:00,
2013-04-11 17:15:00,59.9,37.4,29.74,SSW,204,8.0,8.0,43,0.00,,---,0.01,VWS V14.01,2013-04-11 22:15:00,
2013-04-11 17:20:00,59.8,37.3,29.74,WSW,256,5.0,5.0,43,0.00,,---,0.01,VWS V14.01,2013-04-11 22:20:00,
2013-04-11 17:25:00,59.6,35.9,29.74,South,171,7.0,10.0,41,0.00,,---,0.01,VWS V14.01,2013-04-11 22:25:00,
2013-04-11 17:30:00,59.6,36.5,29.74,West,260,3.0,3.0,42,0.00,,---,0.01,VWS V14.01,2013-04-11 22:30:00,
2013-04-11 17:35:00,59.6,36.5,29.74,SW,222,2.0,5.0,42,0.00,,---,0.01,VWS V14.01,2013-04-11 22:35:00,
2013-04-11 17:40:00,59.9,38.0,29.75,SSW,205,8.0,8.0,44,0.00,,---,0.01,VWS V14.01,2013-04-11 22:40:00,
2013-04-11 17:45:00,59.9,37.4,29.75,WSW,241,2.0,8.0,43,0.00,,---,0.01,VWS V14.01,2013-04-11 22:45:00,
2013-04-11 17:50:00,59.5,36.4,29.75,WSW,239,10.0,10.0,42,0.00,,---,0.01,VWS V14.01,2013-04-11 22:50:00,
2013-04-11 17:55:00,59.2,36.1,29.75,SW,215,6.0,10.0,42,0.00,,---,0.01,VWS V14.01,2013-04-11 22:55:00,
2013-04-11 18:00:00,58.9,35.9,29.75,SW,215,2.0,2.0,42,0.00,,---,0.01,VWS V14.01,2013-04-11 23:00:00,
2013-04-11 18:05:00,58.6,35.6,29.75,SSW,212,2.0,13.0,42,0.00,,---,0.01,VWS V14.01,2013-04-11 23:05:00,
2013-04-11 18:10:00,58.6,37.3,29.75,SSW,203,6.0,6.0,45,0.00,,---,0.01,VWS V14.01,2013-04-11 23:10:00,
2013-04-11 18:15:00,58.6,37.3,29.75,SW,215,5.0,10.0,45,0.00,,---,0.01,VWS V14.01,2013-04-11 23:15:00,
2013-04-11 18:20:00,58.1,36.3,29.76,SW,228,3.0,5.0,44,0.00,,---,0.01,VWS V14.01,2013-04-11 23:20:00,
2013-04-11 18:25:00,58.1,36.3,29.76,SSW,207,3.0,10.0,44,0.00,,---,0.01,VWS V14.01,2013-04-11 23:25:00,
2013-04-11 18:30:00,57.8,36.6,29.76,West,265,6.0,7.0,45,0.00,,---,0.01,VWS V14.01,2013-04-11 23:30:00,
2013-04-11 18:35:00,57.8,36.6,29.76,West,262,5.0,8.0,45,0.00,,---,0.01,VWS V14.01,2013-04-11 23:35:00,
2013-04-11 18:40:00,57.5,36.9,29.75,SSW,198,2.0,3.0,46,0.00,,---,0.01,VWS V14.01,2013-04-11 23:40:00,
2013-04-11 18:45:00,57.5,36.3,29.75,SW,219,3.0,5.0,45,0.00,,---,0.01,VWS V14.01,2013-04-11 23:45:00,
2013-04-11 18:50:00,57.2,36.1,29.75,WSW,246,3.0,5.0,45,0.00,,---,0.01,VWS V14.01,2013-04-11 23:50:00,
2013-04-11 18:55:00,57.0,35.9,29.75,SSW,193,2.0,5.0,45,0.00,,---,0.01,VWS V14.01,2013-04-11 23:55:00,
2013-04-11 19:00:00,56.7,36.2,29.75,SSW,204,3.0,3.0,46,0.00,,---,0.01,VWS V14.01,2013-04-12 00:00:00,
2013-04-11 19:05:00,56.7,37.2,29.76,SSW,200,1.0,6.0,48,0.00,,---,0.01,VWS V14.01,2013-04-12 00:05:00,
2013-04-11 19:10:00,56.5,37.1,29.76,SSW,200,3.0,3.0,48,0.00,,---,0.01,VWS V14.01,2013-04-12 00:10:00,
2013-04-11 19:15:00,56.2,37.3,29.76,West,269,2.0,6.0,49,0.00,,---,0.01,VWS V14.01,2013-04-12 00:15:00,
2013-04-11 19:20:00,56.0,37.1,29.76,WSW,243,2.0,5.0,49,0.00,,---,0.01,VWS V14.01,2013-04-12 00:20:00,
2013-04-11 19:25:00,55.7,37.4,29.77,West,265,1.0,5.0,50,0.00,,---,0.01,VWS V14.01,2013-04-12 00:25:00,
2013-04-11 19:30:00,55.4,37.1,29.77,WSW,239,3.0,5.0,50,0.00,,---,0.01,VWS V14.01,2013-04-12 00:30:00,
2013-04-11 19:35:00,55.1,38.3,29.77,WSW,239,1.0,5.0,53,0.00,,---,0.01,VWS V14.01,2013-04-12 00:35:00,
2013-04-11 19:40:00,54.7,37.9,29.77,WSW,239,2.0,2.0,53,0.00,,---,0.01,VWS V14.01,2013-04-12 00:40:00,
2013-04-11 19:45:00,54.4,38.6,29.77,WSW,239,1.0,2.0,55,0.00,,---,0.01,VWS V14.01,2013-04-12 00:45:00,
2013-04-11 19:50:00,53.6,38.8,29.78,WSW,239,1.0,3.0,57,0.00,,---,0.01,VWS V14.01,2013-04-12 00:50:00,
2013-04-11 19:55:00,53.5,39.1,29.77,WSW,239,0.0,3.0,58,0.00,,---,0.01,VWS V14.01,2013-04-12 00:55:00,
2013-04-11 20:00:00,52.5,39.9,29.78,WSW,239,0.0,0.0,62,0.00,,---,0.01,VWS V14.01,2013-04-12 01:00:00,
2013-04-11 20:05:00,51.9,39.3,29.78,WSW,239,0.0,0.0,62,0.00,,---,0.01,VWS V14.01,2013-04-12 01:05:00,
2013-04-11 20:10:00,51.3,40.0,29.78,WSW,239,1.0,1.0,65,0.00,,---,0.01,VWS V14.01,2013-04-12 01:10:00,
2013-04-11 20:15:00,50.8,39.5,29.78,WSW,239,0.0,2.0,65,0.00,,---,0.01,VWS V14.01,2013-04-12 01:15:00,
2013-04-11 20:20:00,50.5,39.2,29.79,WSW,239,1.0,1.0,65,0.00,,---,0.01,VWS V14.01,2013-04-12 01:20:00,
2013-04-11 20:25:00,50.4,39.1,29.79,WSW,238,0.0,1.0,65,0.00,,---,0.01,VWS V14.01,2013-04-12 01:25:00,
2013-04-11 20:30:00,50.4,38.3,29.79,SSW,205,1.0,2.0,63,0.00,,---,0.01,VWS V14.01,2013-04-12 01:30:00,
2013-04-11 20:35:00,50.4,39.1,29.79,SSW,205,0.0,2.0,65,0.00,,---,0.01,VWS V14.01,2013-04-12 01:35:00,
2013-04-11 20:40:00,49.8,40.0,29.79,SSW,205,0.0,0.0,69,0.00,,---,0.01,VWS V14.01,2013-04-12 01:40:00,
2013-04-11 20:45:00,49.6,39.9,29.79,SSW,205,0.0,0.0,69,0.00,,---,0.01,VWS V14.01,2013-04-12 01:45:00,
2013-04-11 20:51:00,49.5,39.8,29.80,SSW,207,1.0,1.0,69,0.00,,---,0.01,VWS V14.01,2013-04-12 01:51:00,
2013-04-11 20:56:00,50.2,36.9,29.80,WSW,239,3.0,6.0,60,0.00,,---,0.01,VWS V14.01,2013-04-12 01:56:00,
2013-04-11 21:02:00,50.8,37.4,29.80,WSW,256,2.0,3.0,60,0.00,,---,0.01,VWS V14.01,2013-04-12 02:02:00,
2013-04-11 21:07:00,51.0,37.6,29.80,WSW,256,0.0,3.0,60,0.00,,---,0.01,VWS V14.01,2013-04-12 02:07:00,
2013-04-11 21:12:00,50.8,37.4,29.80,WSW,256,0.0,0.0,60,0.00,,---,0.01,VWS V14.01,2013-04-12 02:12:00,
2013-04-11 21:17:00,50.4,37.0,29.81,WSW,256,0.0,0.0,60,0.00,,---,0.01,VWS V14.01,2013-04-12 02:17:00,
2013-04-11 21:22:00,49.8,36.5,29.81,WSW,256,0.0,0.0,60,0.00,,---,0.01,VWS V14.01,2013-04-12 02:22:00,
2013-04-11 21:27:00,49.4,39.3,29.81,WSW,256,0.0,1.0,68,0.00,,---,0.01,VWS V14.01,2013-04-12 02:27:00,
2013-04-11 21:32:00,48.8,39.5,29.81,WSW,256,0.0,0.0,70,0.00,,---,0.01,VWS V14.01,2013-04-12 02:32:00,
2013-04-11 21:37:00,48.0,38.7,29.82,WSW,256,0.0,0.0,70,0.00,,---,0.01,VWS V14.01,2013-04-12 02:37:00,
2013-04-11 21:42:00,47.9,38.6,29.82,WSW,256,0.0,0.0,70,0.00,,---,0.01,VWS V14.01,2013-04-12 02:42:00,
2013-04-11 21:47:00,46.8,37.5,29.82,WSW,256,0.0,0.0,70,0.00,,---,0.01,VWS V14.01,2013-04-12 02:47:00,
2013-04-11 21:52:00,46.4,39.3,29.82,WSW,256,0.0,0.0,76,0.00,,---,0.01,VWS V14.01,2013-04-12 02:52:00,
2013-04-11 21:57:00,46.0,38.9,29.82,WSW,256,0.0,0.0,76,0.00,,---,0.01,VWS V14.01,2013-04-12 02:57:00,
2013-04-11 22:02:00,45.7,38.6,29.82,WSW,256,0.0,0.0,76,0.00,,---,0.01,VWS V14.01,2013-04-12 03:02:00,
2013-04-11 22:07:00,45.5,38.7,29.83,WSW,256,0.0,0.0,77,0.00,,---,0.01,VWS V14.01,2013-04-12 03:07:00,
2013-04-11 22:12:00,45.1,38.3,29.83,WSW,256,0.0,0.0,77,0.00,,---,0.01,VWS V14.01,2013-04-12 03:12:00,
2013-04-11 22:17:00,44.6,38.2,29.83,WSW,256,0.0,0.0,78,0.00,,---,0.01,VWS V14.01,2013-04-12 03:17:00,
2013-04-11 22:22:00,44.2,38.1,29.83,WSW,256,0.0,0.0,79,0.00,,---,0.01,VWS V14.01,2013-04-12 03:22:00,
2013-04-11 22:27:00,44.1,38.3,29.83,WSW,256,0.0,0.0,80,0.00,,---,0.01,VWS V14.01,2013-04-12 03:27:00,
2013-04-11 22:32:00,43.6,37.8,29.83,WSW,256,0.0,0.0,80,0.00,,---,0.01,VWS V14.01,2013-04-12 03:32:00,
2013-04-11 22:37:00,43.2,38.1,29.83,WSW,256,0.0,0.0,82,0.00,,---,0.01,VWS V14.01,2013-04-12 03:37:00,
2013-04-11 22:42:00,42.8,38.0,29.83,WSW,256,0.0,0.0,83,0.00,,---,0.01,VWS V14.01,2013-04-12 03:42:00,
2013-04-11 22:47:00,42.5,37.7,29.83,WSW,256,0.0,0.0,83,0.00,,---,0.01,VWS V14.01,2013-04-12 03:47:00,
2013-04-11 22:52:00,42.1,37.6,29.83,WSW,256,0.0,0.0,84,0.00,,---,0.01,VWS V14.01,2013-04-12 03:52:00,
2013-04-11 22:57:00,41.8,37.6,29.83,WSW,256,0.0,0.0,85,0.00,,---,0.01,VWS V14.01,2013-04-12 03:57:00,
2013-04-11 23:00:00,41.6,37.4,29.83,WSW,256,0.0,0.0,85,0.00,,---,0.01,VWS V14.01,2013-04-12 04:00:00,
2013-04-11 23:05:00,41.2,37.0,29.83,WSW,256,0.0,0.0,85,0.00,,---,0.01,VWS V14.01,2013-04-12 04:05:00,
2013-04-11 23:10:00,41.1,36.9,29.83,WSW,256,0.0,0.0,85,0.00,,---,0.01,VWS V14.01,2013-04-12 04:10:00,
2013-04-11 23:15:00,40.8,37.5,29.83,WSW,256,0.0,0.0,88,0.00,,---,0.01,VWS V14.01,2013-04-12 04:15:00,
2013-04-11 23:20:00,40.6,37.3,29.83,WSW,256,0.0,0.0,88,0.00,,---,0.01,VWS V14.01,2013-04-12 04:20:00,
2013-04-11 23:25:00,40.5,37.2,29.82,WSW,256,0.0,0.0,88,0.00,,---,0.01,VWS V14.01,2013-04-12 04:25:00,
2013-04-11 23:30:00,40.1,36.8,29.83,WSW,256,0.0,0.0,88,0.00,,---,0.01,VWS V14.01,2013-04-12 04:30:00,
2013-04-11 23:35:00,39.9,36.6,29.83,WSW,256,0.0,0.0,88,0.00,,---,0.01,VWS V14.01,2013-04-12 04:35:00,
2013-04-11 23:40:00,39.6,36.6,29.83,WSW,256,0.0,0.0,89,0.00,,---,0.01,VWS V14.01,2013-04-12 04:40:00,
2013-04-11 23:45:00,39.3,36.0,29.83,WSW,256,0.0,0.0,88,0.00,,---,0.01,VWS V14.01,2013-04-12 04:45:00,
2013-04-11 23:50:00,39.1,36.1,29.83,WSW,256,0.0,0.0,89,0.00,,---,0.01,VWS V14.01,2013-04-12 04:50:00,
2013-04-11 23:55:00,38.9,35.9,29.84,WSW,256,0.0,0.0,89,0.00,,---,0.01,VWS V14.01,2013-04-12 04:55:00,